sensor_id;sensor_type;location;lat;lon;timestamp;temperature;humidity
4520;DHT22;2272;49.226;8.108;2022-08-01T00:01:17;21.90;90.00
4520;DHT22;2272;49.226;8.108;2022-08-01T00:03:45;21.80;89.90
4520;DHT22;2272;49.226;8.108;2022-08-01T00:06:12;21.80;89.80
4520;DHT22;2272;49.226;8.108;2022-08-01T00:08:38;21.80;90.00
4520;DHT22;2272;49.226;8.108;2022-08-01T00:11:05;21.70;90.10
4520;DHT22;2272;49.226;8.108;2022-08-01T00:13:33;21.70;90.20
4520;DHT22;2272;49.226;8.108;2022-08-01T00:16:01;21.60;90.30
4520;DHT22;2272;49.226;8.108;2022-08-01T00:18:27;21.60;90.50
4520;DHT22;2272;49.226;8.108;2022-08-01T00:20:55;21.60;90.50
4520;DHT22;2272;49.226;8.108;2022-08-01T00:23:22;21.60;90.50
4520;DHT22;2272;49.226;8.108;2022-08-01T00:25:49;21.60;90.50
4520;DHT22;2272;49.226;8.108;2022-08-01T00:28:16;21.60;90.50
4520;DHT22;2272;49.226;8.108;2022-08-01T00:30:42;21.60;90.60
4520;DHT22;2272;49.226;8.108;2022-08-01T00:33:09;21.50;90.70
4520;DHT22;2272;49.226;8.108;2022-08-01T00:35:36;21.50;90.80
4520;DHT22;2272;49.226;8.108;2022-08-01T00:38:04;21.50;90.90
4520;DHT22;2272;49.226;8.108;2022-08-01T00:40:31;21.50;90.90
4520;DHT22;2272;49.226;8.108;2022-08-01T00:42:57;21.50;91.10
4520;DHT22;2272;49.226;8.108;2022-08-01T00:45:24;21.40;91.40
4520;DHT22;2272;49.226;8.108;2022-08-01T00:47:51;21.40;91.40
4520;DHT22;2272;49.226;8.108;2022-08-01T00:50:17;21.30;91.70
4520;DHT22;2272;49.226;8.108;2022-08-01T00:52:44;21.30;91.80
4520;DHT22;2272;49.226;8.108;2022-08-01T00:55:12;21.30;91.80
4520;DHT22;2272;49.226;8.108;2022-08-01T00:57:40;21.20;91.90
4520;DHT22;2272;49.226;8.108;2022-08-01T01:00:07;21.20;92.00
4520;DHT22;2272;49.226;8.108;2022-08-01T01:02:34;21.10;92.20
4520;DHT22;2272;49.226;8.108;2022-08-01T01:05:02;21.10;92.20
4520;DHT22;2272;49.226;8.108;2022-08-01T01:07:32;21.00;92.30
4520;DHT22;2272;49.226;8.108;2022-08-01T01:10:06;20.90;92.40
4520;DHT22;2272;49.226;8.108;2022-08-01T01:12:42;20.80;92.50
4520;DHT22;2272;49.226;8.108;2022-08-01T01:15:13;20.80;92.60
4520;DHT22;2272;49.226;8.108;2022-08-01T01:17:46;20.70;92.70
4520;DHT22;2272;49.226;8.108;2022-08-01T01:20:15;20.70;92.80
4520;DHT22;2272;49.226;8.108;2022-08-01T01:22:53;20.60;92.90
4520;DHT22;2272;49.226;8.108;2022-08-01T01:28:34;20.60;93.20
4520;DHT22;2272;49.226;8.108;2022-08-01T01:31:05;20.50;93.30
4520;DHT22;2272;49.226;8.108;2022-08-01T01:33:34;20.50;93.40
4520;DHT22;2272;49.226;8.108;2022-08-01T01:36:04;20.40;93.50
4520;DHT22;2272;49.226;8.108;2022-08-01T01:38:34;20.40;93.60
4520;DHT22;2272;49.226;8.108;2022-08-01T01:41:02;20.40;93.70
4520;DHT22;2272;49.226;8.108;2022-08-01T01:43:31;20.30;93.90
4520;DHT22;2272;49.226;8.108;2022-08-01T01:45:59;20.20;94.00
4520;DHT22;2272;49.226;8.108;2022-08-01T01:48:28;20.20;94.20
4520;DHT22;2272;49.226;8.108;2022-08-01T01:50:56;20.20;94.30
4520;DHT22;2272;49.226;8.108;2022-08-01T01:53:24;20.10;94.40
4520;DHT22;2272;49.226;8.108;2022-08-01T01:55:54;20.10;94.50
4520;DHT22;2272;49.226;8.108;2022-08-01T01:58:23;20.10;94.70
4520;DHT22;2272;49.226;8.108;2022-08-01T02:00:52;20.00;94.80
4520;DHT22;2272;49.226;8.108;2022-08-01T02:03:20;19.90;95.00
4520;DHT22;2272;49.226;8.108;2022-08-01T02:05:48;19.90;95.20
4520;DHT22;2272;49.226;8.108;2022-08-01T02:08:16;19.80;95.40
4520;DHT22;2272;49.226;8.108;2022-08-01T02:10:44;19.80;95.50
4520;DHT22;2272;49.226;8.108;2022-08-01T02:13:34;19.80;95.70
4520;DHT22;2272;49.226;8.108;2022-08-01T02:16:03;19.70;95.90
4520;DHT22;2272;49.226;8.108;2022-08-01T02:18:31;19.60;96.10
4520;DHT22;2272;49.226;8.108;2022-08-01T02:21:00;19.60;96.40
4520;DHT22;2272;49.226;8.108;2022-08-01T02:23:32;19.50;96.70
4520;DHT22;2272;49.226;8.108;2022-08-01T02:26:03;19.50;97.00
4520;DHT22;2272;49.226;8.108;2022-08-01T02:28:35;19.50;97.30
4520;DHT22;2272;49.226;8.108;2022-08-01T02:31:04;19.50;97.70
4520;DHT22;2272;49.226;8.108;2022-08-01T02:33:36;19.40;97.80
4520;DHT22;2272;49.226;8.108;2022-08-01T02:36:06;19.40;98.10
4520;DHT22;2272;49.226;8.108;2022-08-01T02:38:35;19.40;98.40
4520;DHT22;2272;49.226;8.108;2022-08-01T02:41:06;19.30;98.60
4520;DHT22;2272;49.226;8.108;2022-08-01T02:43:35;19.30;98.90
4520;DHT22;2272;49.226;8.108;2022-08-01T02:46:04;19.30;99.10
4520;DHT22;2272;49.226;8.108;2022-08-01T02:48:35;19.30;99.40
4520;DHT22;2272;49.226;8.108;2022-08-01T02:51:04;19.20;99.60
4520;DHT22;2272;49.226;8.108;2022-08-01T02:53:34;19.20;99.80
4520;DHT22;2272;49.226;8.108;2022-08-01T02:56:05;19.20;99.90
4520;DHT22;2272;49.226;8.108;2022-08-01T02:58:33;19.20;99.90
4520;DHT22;2272;49.226;8.108;2022-08-01T03:01:02;19.20;99.90
4520;DHT22;2272;49.226;8.108;2022-08-01T03:03:30;19.20;99.90
4520;DHT22;2272;49.226;8.108;2022-08-01T03:05:58;19.20;99.90
4520;DHT22;2272;49.226;8.108;2022-08-01T03:08:28;19.10;99.90
4520;DHT22;2272;49.226;8.108;2022-08-01T03:10:56;19.20;99.90
4520;DHT22;2272;49.226;8.108;2022-08-01T03:13:25;19.10;99.90
4520;DHT22;2272;49.226;8.108;2022-08-01T03:15:52;19.10;99.90
4520;DHT22;2272;49.226;8.108;2022-08-01T03:18:21;19.20;99.90
4520;DHT22;2272;49.226;8.108;2022-08-01T03:20:51;19.30;99.90
4520;DHT22;2272;49.226;8.108;2022-08-01T03:23:20;19.30;99.90
4520;DHT22;2272;49.226;8.108;2022-08-01T03:25:49;19.30;99.90
4520;DHT22;2272;49.226;8.108;2022-08-01T03:28:18;19.30;99.90
4520;DHT22;2272;49.226;8.108;2022-08-01T03:30:47;19.30;99.90
4520;DHT22;2272;49.226;8.108;2022-08-01T03:33:15;19.30;99.90
4520;DHT22;2272;49.226;8.108;2022-08-01T03:35:45;19.30;99.90
4520;DHT22;2272;49.226;8.108;2022-08-01T03:38:13;19.30;99.90
4520;DHT22;2272;49.226;8.108;2022-08-01T03:40:45;19.30;99.90
4520;DHT22;2272;49.226;8.108;2022-08-01T03:43:18;19.40;99.90
4520;DHT22;2272;49.226;8.108;2022-08-01T03:45:48;19.40;99.90
4520;DHT22;2272;49.226;8.108;2022-08-01T03:48:18;19.50;99.90
4520;DHT22;2272;49.226;8.108;2022-08-01T03:50:46;19.50;99.90
4520;DHT22;2272;49.226;8.108;2022-08-01T03:53:15;19.60;99.90
4520;DHT22;2272;49.226;8.108;2022-08-01T03:55:44;19.60;99.90
4520;DHT22;2272;49.226;8.108;2022-08-01T03:58:12;19.70;99.90
4520;DHT22;2272;49.226;8.108;2022-08-01T04:00:40;19.70;99.90
4520;DHT22;2272;49.226;8.108;2022-08-01T04:03:09;19.60;99.90
4520;DHT22;2272;49.226;8.108;2022-08-01T04:05:36;19.60;99.90
4520;DHT22;2272;49.226;8.108;2022-08-01T04:08:03;19.50;99.90
4520;DHT22;2272;49.226;8.108;2022-08-01T04:10:30;19.50;99.90
4520;DHT22;2272;49.226;8.108;2022-08-01T04:12:57;19.40;99.90
4520;DHT22;2272;49.226;8.108;2022-08-01T04:15:23;19.40;99.90
4520;DHT22;2272;49.226;8.108;2022-08-01T04:17:52;19.30;99.90
4520;DHT22;2272;49.226;8.108;2022-08-01T04:20:19;19.20;99.90
4520;DHT22;2272;49.226;8.108;2022-08-01T04:22:46;19.20;99.90
4520;DHT22;2272;49.226;8.108;2022-08-01T04:25:17;19.20;99.90
4520;DHT22;2272;49.226;8.108;2022-08-01T04:27:48;19.20;99.90
4520;DHT22;2272;49.226;8.108;2022-08-01T04:30:16;19.20;99.90
4520;DHT22;2272;49.226;8.108;2022-08-01T04:32:45;19.30;99.90
4520;DHT22;2272;49.226;8.108;2022-08-01T04:35:16;19.40;99.90
4520;DHT22;2272;49.226;8.108;2022-08-01T04:37:46;19.50;99.90
4520;DHT22;2272;49.226;8.108;2022-08-01T04:40:17;19.60;99.90
4520;DHT22;2272;49.226;8.108;2022-08-01T04:42:45;19.70;99.90
4520;DHT22;2272;49.226;8.108;2022-08-01T04:45:14;19.80;99.90
4520;DHT22;2272;49.226;8.108;2022-08-01T04:47:43;19.90;99.90
4520;DHT22;2272;49.226;8.108;2022-08-01T04:50:11;20.00;99.90
4520;DHT22;2272;49.226;8.108;2022-08-01T04:52:39;20.00;99.90
4520;DHT22;2272;49.226;8.108;2022-08-01T04:55:08;20.00;99.90
4520;DHT22;2272;49.226;8.108;2022-08-01T04:57:37;20.20;99.90
4520;DHT22;2272;49.226;8.108;2022-08-01T05:00:06;20.20;99.90
4520;DHT22;2272;49.226;8.108;2022-08-01T05:02:33;20.30;99.90
4520;DHT22;2272;49.226;8.108;2022-08-01T05:05:00;20.50;99.90
4520;DHT22;2272;49.226;8.108;2022-08-01T05:07:27;20.60;99.90
4520;DHT22;2272;49.226;8.108;2022-08-01T05:09:55;20.70;99.90
4520;DHT22;2272;49.226;8.108;2022-08-01T05:12:22;20.80;99.90
4520;DHT22;2272;49.226;8.108;2022-08-01T05:14:48;20.90;99.90
4520;DHT22;2272;49.226;8.108;2022-08-01T05:17:15;20.90;99.90
4520;DHT22;2272;49.226;8.108;2022-08-01T05:19:42;21.00;99.90
4520;DHT22;2272;49.226;8.108;2022-08-01T05:22:09;21.00;99.90
4520;DHT22;2272;49.226;8.108;2022-08-01T05:24:38;21.10;99.90
4520;DHT22;2272;49.226;8.108;2022-08-01T05:27:06;21.10;99.90
4520;DHT22;2272;49.226;8.108;2022-08-01T05:29:34;21.10;99.90
4520;DHT22;2272;49.226;8.108;2022-08-01T05:32:01;21.10;99.90
4520;DHT22;2272;49.226;8.108;2022-08-01T05:34:27;21.20;99.90
4520;DHT22;2272;49.226;8.108;2022-08-01T05:36:54;21.30;99.90
4520;DHT22;2272;49.226;8.108;2022-08-01T05:39:21;21.30;99.90
4520;DHT22;2272;49.226;8.108;2022-08-01T05:41:48;21.40;99.90
4520;DHT22;2272;49.226;8.108;2022-08-01T05:44:16;21.50;99.90
4520;DHT22;2272;49.226;8.108;2022-08-01T05:46:43;21.50;99.90
4520;DHT22;2272;49.226;8.108;2022-08-01T05:49:09;21.60;99.90
4520;DHT22;2272;49.226;8.108;2022-08-01T05:51:36;21.60;99.90
4520;DHT22;2272;49.226;8.108;2022-08-01T05:54:03;21.70;99.90
4520;DHT22;2272;49.226;8.108;2022-08-01T05:56:29;22.10;99.90
4520;DHT22;2272;49.226;8.108;2022-08-01T05:58:56;22.80;99.90
4520;DHT22;2272;49.226;8.108;2022-08-01T06:01:24;23.40;99.90
4520;DHT22;2272;49.226;8.108;2022-08-01T06:03:51;24.00;99.90
4520;DHT22;2272;49.226;8.108;2022-08-01T06:06:19;24.60;99.90
4520;DHT22;2272;49.226;8.108;2022-08-01T06:08:46;25.10;99.00
4520;DHT22;2272;49.226;8.108;2022-08-01T06:11:13;25.40;97.80
4520;DHT22;2272;49.226;8.108;2022-08-01T06:13:40;25.40;96.80
4520;DHT22;2272;49.226;8.108;2022-08-01T06:16:07;25.10;97.00
4520;DHT22;2272;49.226;8.108;2022-08-01T06:18:35;24.60;97.10
4520;DHT22;2272;49.226;8.108;2022-08-01T06:21:01;24.20;97.70
4520;DHT22;2272;49.226;8.108;2022-08-01T06:23:28;23.90;98.30
4520;DHT22;2272;49.226;8.108;2022-08-01T06:25:55;23.70;98.50
4520;DHT22;2272;49.226;8.108;2022-08-01T06:28:23;23.50;98.70
4520;DHT22;2272;49.226;8.108;2022-08-01T06:30:50;23.40;99.00
4520;DHT22;2272;49.226;8.108;2022-08-01T06:33:16;23.30;99.20
4520;DHT22;2272;49.226;8.108;2022-08-01T06:35:44;23.20;99.50
4520;DHT22;2272;49.226;8.108;2022-08-01T06:38:11;23.00;99.70
4520;DHT22;2272;49.226;8.108;2022-08-01T06:40:38;22.90;99.90
4520;DHT22;2272;49.226;8.108;2022-08-01T06:43:05;22.90;99.90
4520;DHT22;2272;49.226;8.108;2022-08-01T06:45:31;23.00;99.90
4520;DHT22;2272;49.226;8.108;2022-08-01T06:47:58;23.20;99.90
4520;DHT22;2272;49.226;8.108;2022-08-01T06:50:25;23.30;99.70
4520;DHT22;2272;49.226;8.108;2022-08-01T06:52:53;23.60;99.40
4520;DHT22;2272;49.226;8.108;2022-08-01T06:55:20;23.70;99.20
4520;DHT22;2272;49.226;8.108;2022-08-01T06:57:48;23.80;98.80
4520;DHT22;2272;49.226;8.108;2022-08-01T07:00:17;23.80;98.70
4520;DHT22;2272;49.226;8.108;2022-08-01T07:02:47;23.90;98.80
4520;DHT22;2272;49.226;8.108;2022-08-01T07:05:14;24.00;98.40
4520;DHT22;2272;49.226;8.108;2022-08-01T07:07:41;24.20;98.40
4520;DHT22;2272;49.226;8.108;2022-08-01T07:10:10;24.30;97.80
4520;DHT22;2272;49.226;8.108;2022-08-01T07:12:37;24.40;97.70
4520;DHT22;2272;49.226;8.108;2022-08-01T07:15:04;24.50;97.70
4520;DHT22;2272;49.226;8.108;2022-08-01T07:17:31;24.80;97.40
4520;DHT22;2272;49.226;8.108;2022-08-01T07:19:58;24.90;96.70
4520;DHT22;2272;49.226;8.108;2022-08-01T07:22:25;24.90;96.80
4520;DHT22;2272;49.226;8.108;2022-08-01T07:24:51;24.90;96.70
4520;DHT22;2272;49.226;8.108;2022-08-01T07:27:20;24.90;96.70
4520;DHT22;2272;49.226;8.108;2022-08-01T07:29:46;25.00;96.70
4520;DHT22;2272;49.226;8.108;2022-08-01T07:32:13;24.80;96.50
4520;DHT22;2272;49.226;8.108;2022-08-01T07:34:40;24.70;96.50
4520;DHT22;2272;49.226;8.108;2022-08-01T07:37:06;24.60;96.50
4520;DHT22;2272;49.226;8.108;2022-08-01T07:39:33;24.50;96.60
4520;DHT22;2272;49.226;8.108;2022-08-01T07:42:00;24.50;96.60
4520;DHT22;2272;49.226;8.108;2022-08-01T07:44:28;24.50;96.80
4520;DHT22;2272;49.226;8.108;2022-08-01T07:46:55;24.60;96.60
4520;DHT22;2272;49.226;8.108;2022-08-01T07:49:21;24.70;96.40
4520;DHT22;2272;49.226;8.108;2022-08-01T07:51:48;24.80;96.60
4520;DHT22;2272;49.226;8.108;2022-08-01T07:54:15;24.70;96.20
4520;DHT22;2272;49.226;8.108;2022-08-01T07:56:41;24.70;96.30
4520;DHT22;2272;49.226;8.108;2022-08-01T07:59:08;24.90;96.20
4520;DHT22;2272;49.226;8.108;2022-08-01T08:01:36;25.10;95.90
4520;DHT22;2272;49.226;8.108;2022-08-01T08:04:03;25.20;95.50
4520;DHT22;2272;49.226;8.108;2022-08-01T08:06:30;25.40;95.40
4520;DHT22;2272;49.226;8.108;2022-08-01T08:08:56;25.70;94.90
4520;DHT22;2272;49.226;8.108;2022-08-01T08:11:23;25.90;94.90
4520;DHT22;2272;49.226;8.108;2022-08-01T08:13:50;26.10;94.50
4520;DHT22;2272;49.226;8.108;2022-08-01T08:16:16;26.70;93.40
4520;DHT22;2272;49.226;8.108;2022-08-01T08:18:44;27.20;92.10
4520;DHT22;2272;49.226;8.108;2022-08-01T08:21:11;27.50;91.60
4520;DHT22;2272;49.226;8.108;2022-08-01T08:23:38;27.90;91.30
4520;DHT22;2272;49.226;8.108;2022-08-01T08:26:22;28.40;90.30
4520;DHT22;2272;49.226;8.108;2022-08-01T08:28:50;28.60;89.30
4520;DHT22;2272;49.226;8.108;2022-08-01T08:31:17;29.00;88.50
4520;DHT22;2272;49.226;8.108;2022-08-01T08:33:45;29.20;86.70
4520;DHT22;2272;49.226;8.108;2022-08-01T08:36:13;29.60;84.80
4520;DHT22;2272;49.226;8.108;2022-08-01T08:38:40;29.80;84.00
4520;DHT22;2272;49.226;8.108;2022-08-01T08:41:07;29.90;83.90
4520;DHT22;2272;49.226;8.108;2022-08-01T08:43:35;29.90;83.20
4520;DHT22;2272;49.226;8.108;2022-08-01T08:46:02;29.90;83.10
4520;DHT22;2272;49.226;8.108;2022-08-01T08:48:30;29.80;82.50
4520;DHT22;2272;49.226;8.108;2022-08-01T08:51:00;29.50;82.20
4520;DHT22;2272;49.226;8.108;2022-08-01T08:53:28;29.30;82.10
4520;DHT22;2272;49.226;8.108;2022-08-01T08:55:57;29.10;82.60
4520;DHT22;2272;49.226;8.108;2022-08-01T08:58:25;29.00;82.80
4520;DHT22;2272;49.226;8.108;2022-08-01T09:00:53;29.00;85.00
4520;DHT22;2272;49.226;8.108;2022-08-01T09:03:20;28.70;85.80
4520;DHT22;2272;49.226;8.108;2022-08-01T09:05:47;28.50;85.70
4520;DHT22;2272;49.226;8.108;2022-08-01T09:08:15;28.50;85.20
4520;DHT22;2272;49.226;8.108;2022-08-01T09:10:41;28.50;84.60
4520;DHT22;2272;49.226;8.108;2022-08-01T09:13:10;28.50;85.00
4520;DHT22;2272;49.226;8.108;2022-08-01T09:15:44;28.30;86.10
4520;DHT22;2272;49.226;8.108;2022-08-01T09:18:32;28.10;86.90
4520;DHT22;2272;49.226;8.108;2022-08-01T09:21:15;28.10;86.90
4520;DHT22;2272;49.226;8.108;2022-08-01T09:23:45;27.90;87.80
4520;DHT22;2272;49.226;8.108;2022-08-01T09:26:15;27.70;88.10
4520;DHT22;2272;49.226;8.108;2022-08-01T09:28:42;27.60;89.30
4520;DHT22;2272;49.226;8.108;2022-08-01T09:31:11;27.80;89.00
4520;DHT22;2272;49.226;8.108;2022-08-01T09:33:51;28.20;88.10
4520;DHT22;2272;49.226;8.108;2022-08-01T09:36:19;28.50;86.00
4520;DHT22;2272;49.226;8.108;2022-08-01T09:38:48;28.50;85.90
4520;DHT22;2272;49.226;8.108;2022-08-01T09:41:17;28.60;86.20
4520;DHT22;2272;49.226;8.108;2022-08-01T09:43:48;28.70;85.90
4520;DHT22;2272;49.226;8.108;2022-08-01T09:46:16;28.90;85.70
4520;DHT22;2272;49.226;8.108;2022-08-01T09:48:55;29.00;85.10
4520;DHT22;2272;49.226;8.108;2022-08-01T09:51:30;29.10;84.80
4520;DHT22;2272;49.226;8.108;2022-08-01T09:54:01;29.20;84.70
4520;DHT22;2272;49.226;8.108;2022-08-01T09:56:36;29.20;84.80
4520;DHT22;2272;49.226;8.108;2022-08-01T09:59:03;29.20;84.60
4520;DHT22;2272;49.226;8.108;2022-08-01T10:01:42;29.70;83.80
4520;DHT22;2272;49.226;8.108;2022-08-01T10:04:11;29.90;82.30
4520;DHT22;2272;49.226;8.108;2022-08-01T10:06:39;29.70;79.60
4520;DHT22;2272;49.226;8.108;2022-08-01T10:09:09;29.30;80.20
4520;DHT22;2272;49.226;8.108;2022-08-01T10:11:37;29.10;80.50
4520;DHT22;2272;49.226;8.108;2022-08-01T10:14:05;29.10;80.70
4520;DHT22;2272;49.226;8.108;2022-08-01T10:16:34;28.90;81.50
4520;DHT22;2272;49.226;8.108;2022-08-01T10:19:02;28.90;80.60
4520;DHT22;2272;49.226;8.108;2022-08-01T10:21:32;29.00;80.40
4520;DHT22;2272;49.226;8.108;2022-08-01T10:24:00;29.10;79.30
4520;DHT22;2272;49.226;8.108;2022-08-01T10:26:32;29.10;79.00
4520;DHT22;2272;49.226;8.108;2022-08-01T10:29:00;29.30;79.30
4520;DHT22;2272;49.226;8.108;2022-08-01T10:31:27;29.00;79.20
4520;DHT22;2272;49.226;8.108;2022-08-01T10:33:58;28.80;79.70
4520;DHT22;2272;49.226;8.108;2022-08-01T10:36:25;29.00;79.50
4520;DHT22;2272;49.226;8.108;2022-08-01T10:38:54;29.10;79.00
4520;DHT22;2272;49.226;8.108;2022-08-01T10:41:21;29.10;77.90
4520;DHT22;2272;49.226;8.108;2022-08-01T10:43:49;29.20;78.10
4520;DHT22;2272;49.226;8.108;2022-08-01T10:46:18;29.50;78.20
4520;DHT22;2272;49.226;8.108;2022-08-01T10:48:50;29.70;77.20
4520;DHT22;2272;49.226;8.108;2022-08-01T10:51:20;29.90;77.10
4520;DHT22;2272;49.226;8.108;2022-08-01T10:53:49;30.10;75.10
4520;DHT22;2272;49.226;8.108;2022-08-01T10:56:16;30.30;75.60
4520;DHT22;2272;49.226;8.108;2022-08-01T10:58:44;30.60;74.20
4520;DHT22;2272;49.226;8.108;2022-08-01T11:01:15;30.80;74.00
4520;DHT22;2272;49.226;8.108;2022-08-01T11:03:44;31.00;72.30
4520;DHT22;2272;49.226;8.108;2022-08-01T11:06:16;31.20;71.70
4520;DHT22;2272;49.226;8.108;2022-08-01T11:08:50;31.10;72.50
4520;DHT22;2272;49.226;8.108;2022-08-01T11:11:18;31.30;71.10
4520;DHT22;2272;49.226;8.108;2022-08-01T11:14:01;31.90;69.50
4520;DHT22;2272;49.226;8.108;2022-08-01T11:16:35;32.60;68.70
4520;DHT22;2272;49.226;8.108;2022-08-01T11:19:02;32.70;68.60
4520;DHT22;2272;49.226;8.108;2022-08-01T11:21:58;32.60;68.70
4520;DHT22;2272;49.226;8.108;2022-08-01T11:24:54;32.80;68.30
4520;DHT22;2272;49.226;8.108;2022-08-01T11:27:25;33.20;67.40
4520;DHT22;2272;49.226;8.108;2022-08-01T11:30:23;33.10;64.10
4520;DHT22;2272;49.226;8.108;2022-08-01T11:32:54;32.60;64.70
4520;DHT22;2272;49.226;8.108;2022-08-01T11:35:21;32.10;66.00
4520;DHT22;2272;49.226;8.108;2022-08-01T11:37:49;31.80;68.30
4520;DHT22;2272;49.226;8.108;2022-08-01T11:40:19;31.70;69.20
4520;DHT22;2272;49.226;8.108;2022-08-01T11:42:46;32.10;69.20
4520;DHT22;2272;49.226;8.108;2022-08-01T11:45:13;31.60;69.90
4520;DHT22;2272;49.226;8.108;2022-08-01T11:47:44;31.10;70.90
4520;DHT22;2272;49.226;8.108;2022-08-01T11:50:32;31.10;70.50
4520;DHT22;2272;49.226;8.108;2022-08-01T11:53:00;31.10;69.60
4520;DHT22;2272;49.226;8.108;2022-08-01T11:55:28;31.20;70.20
4520;DHT22;2272;49.226;8.108;2022-08-01T11:57:59;31.20;69.50
4520;DHT22;2272;49.226;8.108;2022-08-01T12:00:26;30.90;69.30
4520;DHT22;2272;49.226;8.108;2022-08-01T12:02:57;30.90;68.50
4520;DHT22;2272;49.226;8.108;2022-08-01T12:05:24;30.90;69.00
4520;DHT22;2272;49.226;8.108;2022-08-01T12:07:54;31.00;69.30
4520;DHT22;2272;49.226;8.108;2022-08-01T12:10:24;31.10;69.60
4520;DHT22;2272;49.226;8.108;2022-08-01T12:12:52;31.20;68.20
4520;DHT22;2272;49.226;8.108;2022-08-01T12:15:21;31.30;69.30
4520;DHT22;2272;49.226;8.108;2022-08-01T12:17:50;31.00;69.70
4520;DHT22;2272;49.226;8.108;2022-08-01T12:20:20;31.00;71.00
4520;DHT22;2272;49.226;8.108;2022-08-01T12:22:47;31.30;70.00
4520;DHT22;2272;49.226;8.108;2022-08-01T12:25:20;31.60;69.10
4520;DHT22;2272;49.226;8.108;2022-08-01T12:27:47;32.30;67.70
4520;DHT22;2272;49.226;8.108;2022-08-01T12:30:16;32.20;65.40
4520;DHT22;2272;49.226;8.108;2022-08-01T12:32:45;32.10;66.20
4520;DHT22;2272;49.226;8.108;2022-08-01T12:35:14;32.20;64.90
4520;DHT22;2272;49.226;8.108;2022-08-01T12:37:42;32.40;65.30
4520;DHT22;2272;49.226;8.108;2022-08-01T12:40:12;32.40;65.50
4520;DHT22;2272;49.226;8.108;2022-08-01T12:42:42;32.10;65.80
4520;DHT22;2272;49.226;8.108;2022-08-01T12:45:11;31.90;65.40
4520;DHT22;2272;49.226;8.108;2022-08-01T12:47:39;32.00;66.30
4520;DHT22;2272;49.226;8.108;2022-08-01T12:50:08;32.30;66.40
4520;DHT22;2272;49.226;8.108;2022-08-01T12:52:37;32.40;65.10
4520;DHT22;2272;49.226;8.108;2022-08-01T12:55:12;32.50;64.80
4520;DHT22;2272;49.226;8.108;2022-08-01T12:57:42;32.50;65.70
4520;DHT22;2272;49.226;8.108;2022-08-01T13:00:16;32.40;66.40
4520;DHT22;2272;49.226;8.108;2022-08-01T13:02:45;32.30;65.70
4520;DHT22;2272;49.226;8.108;2022-08-01T13:05:14;31.70;66.50
4520;DHT22;2272;49.226;8.108;2022-08-01T13:07:44;31.50;68.20
4520;DHT22;2272;49.226;8.108;2022-08-01T13:10:12;31.60;68.00
4520;DHT22;2272;49.226;8.108;2022-08-01T13:12:42;31.40;67.70
4520;DHT22;2272;49.226;8.108;2022-08-01T13:15:23;31.10;68.80
4520;DHT22;2272;49.226;8.108;2022-08-01T13:17:51;31.00;68.50
4520;DHT22;2272;49.226;8.108;2022-08-01T13:20:26;31.20;68.90
4520;DHT22;2272;49.226;8.108;2022-08-01T13:22:53;31.00;69.00
4520;DHT22;2272;49.226;8.108;2022-08-01T13:25:20;30.90;69.80
4520;DHT22;2272;49.226;8.108;2022-08-01T13:27:48;30.90;70.50
4520;DHT22;2272;49.226;8.108;2022-08-01T13:30:17;30.80;70.00
4520;DHT22;2272;49.226;8.108;2022-08-01T13:32:57;30.90;70.00
4520;DHT22;2272;49.226;8.108;2022-08-01T13:35:24;31.20;69.70
4520;DHT22;2272;49.226;8.108;2022-08-01T13:37:51;31.40;68.30
4520;DHT22;2272;49.226;8.108;2022-08-01T13:40:24;31.50;68.30
4520;DHT22;2272;49.226;8.108;2022-08-01T13:42:52;32.00;67.90
4520;DHT22;2272;49.226;8.108;2022-08-01T13:45:20;32.10;67.40
4520;DHT22;2272;49.226;8.108;2022-08-01T13:47:47;31.80;67.80
4520;DHT22;2272;49.226;8.108;2022-08-01T13:50:14;31.50;67.90
4520;DHT22;2272;49.226;8.108;2022-08-01T13:52:40;31.50;67.70
4520;DHT22;2272;49.226;8.108;2022-08-01T13:55:08;31.40;68.20
4520;DHT22;2272;49.226;8.108;2022-08-01T13:57:34;31.40;68.60
4520;DHT22;2272;49.226;8.108;2022-08-01T14:00:04;31.30;67.70
4520;DHT22;2272;49.226;8.108;2022-08-01T14:02:31;30.90;68.30
4520;DHT22;2272;49.226;8.108;2022-08-01T14:04:58;30.60;69.60
4520;DHT22;2272;49.226;8.108;2022-08-01T14:07:24;30.40;69.60
4520;DHT22;2272;49.226;8.108;2022-08-01T14:09:51;30.50;70.40
4520;DHT22;2272;49.226;8.108;2022-08-01T14:12:18;30.70;69.50
4520;DHT22;2272;49.226;8.108;2022-08-01T14:14:44;30.80;69.50
4520;DHT22;2272;49.226;8.108;2022-08-01T14:17:13;30.90;69.70
4520;DHT22;2272;49.226;8.108;2022-08-01T14:19:39;30.90;69.60
4520;DHT22;2272;49.226;8.108;2022-08-01T14:22:06;30.70;69.20
4520;DHT22;2272;49.226;8.108;2022-08-01T14:24:33;30.40;70.10
4520;DHT22;2272;49.226;8.108;2022-08-01T14:26:59;30.20;71.50
4520;DHT22;2272;49.226;8.108;2022-08-01T14:29:27;30.10;70.90
4520;DHT22;2272;49.226;8.108;2022-08-01T14:31:54;29.80;71.80
4520;DHT22;2272;49.226;8.108;2022-08-01T14:34:22;29.70;72.00
4520;DHT22;2272;49.226;8.108;2022-08-01T14:36:49;29.90;73.00
4520;DHT22;2272;49.226;8.108;2022-08-01T14:39:15;30.00;71.50
4520;DHT22;2272;49.226;8.108;2022-08-01T14:41:42;30.20;71.90
4520;DHT22;2272;49.226;8.108;2022-08-01T14:44:09;30.40;71.10
4520;DHT22;2272;49.226;8.108;2022-08-01T14:46:35;30.50;70.90
4520;DHT22;2272;49.226;8.108;2022-08-01T14:49:02;30.50;69.80
4520;DHT22;2272;49.226;8.108;2022-08-01T14:51:30;30.40;70.90
4520;DHT22;2272;49.226;8.108;2022-08-01T14:53:59;30.30;70.50
4520;DHT22;2272;49.226;8.108;2022-08-01T14:56:26;30.30;70.70
4520;DHT22;2272;49.226;8.108;2022-08-01T14:58:53;30.50;70.30
4520;DHT22;2272;49.226;8.108;2022-08-01T15:01:20;30.60;69.50
4520;DHT22;2272;49.226;8.108;2022-08-01T15:03:46;30.30;69.80
4520;DHT22;2272;49.226;8.108;2022-08-01T15:06:15;29.90;69.90
4520;DHT22;2272;49.226;8.108;2022-08-01T15:08:43;29.70;71.20
4520;DHT22;2272;49.226;8.108;2022-08-01T15:11:10;29.50;72.30
4520;DHT22;2272;49.226;8.108;2022-08-01T15:13:37;29.20;72.20
4520;DHT22;2272;49.226;8.108;2022-08-01T15:16:04;29.00;72.70
4520;DHT22;2272;49.226;8.108;2022-08-01T15:18:31;28.80;73.70
4520;DHT22;2272;49.226;8.108;2022-08-01T15:20:57;28.80;74.10
4520;DHT22;2272;49.226;8.108;2022-08-01T15:23:24;28.70;73.80
4520;DHT22;2272;49.226;8.108;2022-08-01T15:25:52;28.50;74.40
4520;DHT22;2272;49.226;8.108;2022-08-01T15:28:19;28.50;75.10
4520;DHT22;2272;49.226;8.108;2022-08-01T15:30:46;28.50;75.60
4520;DHT22;2272;49.226;8.108;2022-08-01T15:33:12;28.40;75.60
4520;DHT22;2272;49.226;8.108;2022-08-01T15:35:39;28.50;75.60
4520;DHT22;2272;49.226;8.108;2022-08-01T15:38:07;28.50;75.90
4520;DHT22;2272;49.226;8.108;2022-08-01T15:40:34;28.50;75.90
4520;DHT22;2272;49.226;8.108;2022-08-01T15:43:02;28.50;76.30
4520;DHT22;2272;49.226;8.108;2022-08-01T15:45:29;28.60;75.40
4520;DHT22;2272;49.226;8.108;2022-08-01T15:47:59;28.40;75.00
4520;DHT22;2272;49.226;8.108;2022-08-01T15:50:26;28.10;75.90
4520;DHT22;2272;49.226;8.108;2022-08-01T15:52:52;28.00;76.70
4520;DHT22;2272;49.226;8.108;2022-08-01T15:55:19;27.90;77.00
4520;DHT22;2272;49.226;8.108;2022-08-01T15:57:46;27.80;77.20
4520;DHT22;2272;49.226;8.108;2022-08-01T16:00:14;27.80;77.40
4520;DHT22;2272;49.226;8.108;2022-08-01T16:02:41;27.80;77.20
4520;DHT22;2272;49.226;8.108;2022-08-01T16:05:08;27.80;77.50
4520;DHT22;2272;49.226;8.108;2022-08-01T16:07:35;27.90;77.80
4520;DHT22;2272;49.226;8.108;2022-08-01T16:10:03;27.90;77.60
4520;DHT22;2272;49.226;8.108;2022-08-01T16:12:29;27.90;77.10
4520;DHT22;2272;49.226;8.108;2022-08-01T16:14:56;27.80;76.70